sensor_id;sensor_type;location;lat;lon;timestamp;temperature;humidity
666;DHT22;315;48.738;9.126;2022-12-18T00:01:50;-7.00;99.90
666;DHT22;315;48.738;9.126;2022-12-18T00:04:24;-6.90;99.90
666;DHT22;315;48.738;9.126;2022-12-18T00:06:50;-6.80;99.90
666;DHT22;315;48.738;9.126;2022-12-18T00:09:16;-6.70;99.90
666;DHT22;315;48.738;9.126;2022-12-18T00:11:41;-6.60;99.90
666;DHT22;315;48.738;9.126;2022-12-18T00:14:08;-6.60;99.90
666;DHT22;315;48.738;9.126;2022-12-18T00:16:34;-6.60;99.90
666;DHT22;315;48.738;9.126;2022-12-18T00:19:02;-6.60;99.90
666;DHT22;315;48.738;9.126;2022-12-18T00:21:29;-6.60;99.90
666;DHT22;315;48.738;9.126;2022-12-18T00:23:55;-6.60;99.90
666;DHT22;315;48.738;9.126;2022-12-18T00:26:28;-6.60;99.90
666;DHT22;315;48.738;9.126;2022-12-18T00:28:54;-6.60;99.90
666;DHT22;315;48.738;9.126;2022-12-18T00:31:23;-6.70;99.90
666;DHT22;315;48.738;9.126;2022-12-18T00:33:49;-6.70;99.90
666;DHT22;315;48.738;9.126;2022-12-18T00:36:17;-6.70;99.90
666;DHT22;315;48.738;9.126;2022-12-18T00:38:43;-6.60;99.90
666;DHT22;315;48.738;9.126;2022-12-18T00:41:10;-6.60;99.90
666;DHT22;315;48.738;9.126;2022-12-18T00:43:37;-6.60;99.90
666;DHT22;315;48.738;9.126;2022-12-18T00:46:03;-6.70;99.90
666;DHT22;315;48.738;9.126;2022-12-18T00:48:29;-6.60;99.90
666;DHT22;315;48.738;9.126;2022-12-18T00:50:55;-6.70;99.90
666;DHT22;315;48.738;9.126;2022-12-18T00:53:21;-6.70;99.90
666;DHT22;315;48.738;9.126;2022-12-18T00:55:47;-6.70;99.90
666;DHT22;315;48.738;9.126;2022-12-18T00:58:14;-6.70;99.90
666;DHT22;315;48.738;9.126;2022-12-18T01:00:40;-6.60;99.90
666;DHT22;315;48.738;9.126;2022-12-18T01:03:06;-6.60;99.90
666;DHT22;315;48.738;9.126;2022-12-18T01:05:32;-6.60;99.90
666;DHT22;315;48.738;9.126;2022-12-18T01:07:58;-6.70;99.90
666;DHT22;315;48.738;9.126;2022-12-18T01:10:24;-6.70;99.90
666;DHT22;315;48.738;9.126;2022-12-18T01:12:50;-6.80;99.90
666;DHT22;315;48.738;9.126;2022-12-18T01:15:16;-6.90;99.90
666;DHT22;315;48.738;9.126;2022-12-18T01:17:42;-7.00;99.90
666;DHT22;315;48.738;9.126;2022-12-18T01:20:10;-7.10;99.90
666;DHT22;315;48.738;9.126;2022-12-18T01:22:36;-7.20;99.90
666;DHT22;315;48.738;9.126;2022-12-18T01:25:03;-7.20;99.90
666;DHT22;315;48.738;9.126;2022-12-18T01:27:29;-7.20;99.90
666;DHT22;315;48.738;9.126;2022-12-18T01:29:55;-7.20;99.90
666;DHT22;315;48.738;9.126;2022-12-18T01:32:21;-7.20;99.90
666;DHT22;315;48.738;9.126;2022-12-18T01:34:47;-7.30;99.90
666;DHT22;315;48.738;9.126;2022-12-18T01:37:12;-7.30;99.90
666;DHT22;315;48.738;9.126;2022-12-18T01:39:38;-7.30;99.90
666;DHT22;315;48.738;9.126;2022-12-18T01:42:10;-7.30;99.90
666;DHT22;315;48.738;9.126;2022-12-18T01:52:42;-7.30;99.90
666;DHT22;315;48.738;9.126;2022-12-18T01:55:10;-7.30;99.90
666;DHT22;315;48.738;9.126;2022-12-18T01:57:37;-7.20;99.90
666;DHT22;315;48.738;9.126;2022-12-18T02:00:13;-7.10;99.90
666;DHT22;315;48.738;9.126;2022-12-18T02:02:40;-7.10;99.90
666;DHT22;315;48.738;9.126;2022-12-18T02:05:06;-7.10;99.90
666;DHT22;315;48.738;9.126;2022-12-18T02:10:13;-7.00;99.90
666;DHT22;315;48.738;9.126;2022-12-18T02:13:31;-7.10;99.90
666;DHT22;315;48.738;9.126;2022-12-18T02:16:13;-7.00;99.90
666;DHT22;315;48.738;9.126;2022-12-18T02:18:45;-7.00;99.90
666;DHT22;315;48.738;9.126;2022-12-18T02:21:33;-7.00;99.90
666;DHT22;315;48.738;9.126;2022-12-18T02:26:55;-7.00;99.90
666;DHT22;315;48.738;9.126;2022-12-18T02:29:30;-7.00;99.90
666;DHT22;315;48.738;9.126;2022-12-18T02:32:00;-7.00;99.90
666;DHT22;315;48.738;9.126;2022-12-18T02:34:34;-7.00;99.90
666;DHT22;315;48.738;9.126;2022-12-18T02:37:05;-7.00;99.90
666;DHT22;315;48.738;9.126;2022-12-18T02:39:33;-7.00;99.90
666;DHT22;315;48.738;9.126;2022-12-18T02:42:00;-7.10;99.90
666;DHT22;315;48.738;9.126;2022-12-18T02:44:27;-7.10;99.90
666;DHT22;315;48.738;9.126;2022-12-18T02:46:54;-7.10;99.90
666;DHT22;315;48.738;9.126;2022-12-18T02:52:07;-7.20;99.90
666;DHT22;315;48.738;9.126;2022-12-18T02:54:57;-7.20;99.90
666;DHT22;315;48.738;9.126;2022-12-18T03:00:00;-7.20;99.90
666;DHT22;315;48.738;9.126;2022-12-18T03:02:55;-7.20;99.90
666;DHT22;315;48.738;9.126;2022-12-18T03:05:31;-7.20;99.90
666;DHT22;315;48.738;9.126;2022-12-18T03:08:03;-7.20;99.90
666;DHT22;315;48.738;9.126;2022-12-18T03:10:33;-7.20;99.90
666;DHT22;315;48.738;9.126;2022-12-18T03:13:07;-7.20;99.90
666;DHT22;315;48.738;9.126;2022-12-18T03:15:41;-7.20;99.90
666;DHT22;315;48.738;9.126;2022-12-18T03:18:18;-7.20;99.90
666;DHT22;315;48.738;9.126;2022-12-18T03:20:46;-7.20;99.90
666;DHT22;315;48.738;9.126;2022-12-18T03:23:16;-7.20;99.90
666;DHT22;315;48.738;9.126;2022-12-18T03:25:44;-7.30;99.90
666;DHT22;315;48.738;9.126;2022-12-18T03:28:14;-7.30;99.90
666;DHT22;315;48.738;9.126;2022-12-18T03:30:42;-7.30;99.90
666;DHT22;315;48.738;9.126;2022-12-18T03:33:31;-7.40;99.90
666;DHT22;315;48.738;9.126;2022-12-18T03:36:00;-7.40;99.90
666;DHT22;315;48.738;9.126;2022-12-18T03:38:26;-7.40;99.90
666;DHT22;315;48.738;9.126;2022-12-18T03:43:29;-7.40;99.90
666;DHT22;315;48.738;9.126;2022-12-18T03:46:08;-7.40;99.90
666;DHT22;315;48.738;9.126;2022-12-18T03:48:41;-7.50;99.90
666;DHT22;315;48.738;9.126;2022-12-18T03:51:15;-7.50;99.90
666;DHT22;315;48.738;9.126;2022-12-18T03:56:21;-7.60;99.90
666;DHT22;315;48.738;9.126;2022-12-18T03:58:48;-7.60;99.90
666;DHT22;315;48.738;9.126;2022-12-18T04:01:16;-7.60;99.90
666;DHT22;315;48.738;9.126;2022-12-18T04:03:44;-7.60;99.90
666;DHT22;315;48.738;9.126;2022-12-18T04:06:12;-7.70;99.90
666;DHT22;315;48.738;9.126;2022-12-18T04:08:39;-7.70;99.90
666;DHT22;315;48.738;9.126;2022-12-18T04:11:05;-7.80;99.90
666;DHT22;315;48.738;9.126;2022-12-18T04:13:38;-7.80;99.90
666;DHT22;315;48.738;9.126;2022-12-18T04:16:04;-7.80;99.90
666;DHT22;315;48.738;9.126;2022-12-18T04:18:30;-7.80;99.90
666;DHT22;315;48.738;9.126;2022-12-18T04:20:55;-7.80;99.90
666;DHT22;315;48.738;9.126;2022-12-18T04:23:21;-7.80;99.90
666;DHT22;315;48.738;9.126;2022-12-18T04:25:47;-7.80;99.90
666;DHT22;315;48.738;9.126;2022-12-18T04:28:13;-7.90;99.90
666;DHT22;315;48.738;9.126;2022-12-18T04:30:39;-7.90;99.90
666;DHT22;315;48.738;9.126;2022-12-18T04:33:12;-8.00;99.90
666;DHT22;315;48.738;9.126;2022-12-18T04:35:38;-8.00;99.90
666;DHT22;315;48.738;9.126;2022-12-18T04:38:06;-8.10;99.90
666;DHT22;315;48.738;9.126;2022-12-18T04:40:36;-8.00;99.90
666;DHT22;315;48.738;9.126;2022-12-18T04:43:02;-8.10;99.90
666;DHT22;315;48.738;9.126;2022-12-18T04:45:29;-8.20;99.90
666;DHT22;315;48.738;9.126;2022-12-18T04:47:57;-8.30;99.90
666;DHT22;315;48.738;9.126;2022-12-18T04:50:23;-8.40;99.90
666;DHT22;315;48.738;9.126;2022-12-18T04:52:48;-8.40;99.90
666;DHT22;315;48.738;9.126;2022-12-18T04:55:14;-8.40;99.90
666;DHT22;315;48.738;9.126;2022-12-18T04:57:39;-8.30;99.90
666;DHT22;315;48.738;9.126;2022-12-18T05:00:05;-8.30;99.90
666;DHT22;315;48.738;9.126;2022-12-18T05:02:31;-8.50;99.90
666;DHT22;315;48.738;9.126;2022-12-18T05:04:57;-8.60;99.90
666;DHT22;315;48.738;9.126;2022-12-18T05:07:22;-8.70;99.90
666;DHT22;315;48.738;9.126;2022-12-18T05:09:48;-8.80;99.90
666;DHT22;315;48.738;9.126;2022-12-18T05:12:13;-8.80;99.90
666;DHT22;315;48.738;9.126;2022-12-18T05:14:39;-8.90;99.90
666;DHT22;315;48.738;9.126;2022-12-18T05:17:04;-8.90;99.90
666;DHT22;315;48.738;9.126;2022-12-18T05:19:30;-9.00;99.90
666;DHT22;315;48.738;9.126;2022-12-18T05:21:55;-9.00;99.90
666;DHT22;315;48.738;9.126;2022-12-18T05:24:21;-9.00;99.90
666;DHT22;315;48.738;9.126;2022-12-18T05:26:46;-9.00;99.90
666;DHT22;315;48.738;9.126;2022-12-18T05:29:12;-8.90;99.90
666;DHT22;315;48.738;9.126;2022-12-18T05:31:38;-8.90;99.90
666;DHT22;315;48.738;9.126;2022-12-18T05:34:04;-8.80;99.90
666;DHT22;315;48.738;9.126;2022-12-18T05:36:30;-8.70;99.90
666;DHT22;315;48.738;9.126;2022-12-18T05:38:55;-8.70;99.90
666;DHT22;315;48.738;9.126;2022-12-18T05:41:21;-8.60;99.90
666;DHT22;315;48.738;9.126;2022-12-18T05:43:46;-8.60;99.90
666;DHT22;315;48.738;9.126;2022-12-18T05:46:15;-8.60;99.90
666;DHT22;315;48.738;9.126;2022-12-18T05:48:43;-8.60;99.90
666;DHT22;315;48.738;9.126;2022-12-18T05:51:11;-8.60;99.90
666;DHT22;315;48.738;9.126;2022-12-18T05:53:37;-8.60;99.90
666;DHT22;315;48.738;9.126;2022-12-18T05:56:05;-8.60;99.90
666;DHT22;315;48.738;9.126;2022-12-18T05:58:32;-8.60;99.90
666;DHT22;315;48.738;9.126;2022-12-18T06:01:05;-8.60;99.90
666;DHT22;315;48.738;9.126;2022-12-18T06:03:31;-8.60;99.90
666;DHT22;315;48.738;9.126;2022-12-18T06:05:56;-8.60;99.90
666;DHT22;315;48.738;9.126;2022-12-18T06:08:22;-8.60;99.90
666;DHT22;315;48.738;9.126;2022-12-18T06:10:50;-8.60;99.90
666;DHT22;315;48.738;9.126;2022-12-18T06:13:17;-8.60;99.90
666;DHT22;315;48.738;9.126;2022-12-18T06:15:42;-8.70;99.90
666;DHT22;315;48.738;9.126;2022-12-18T06:18:08;-8.70;99.90
666;DHT22;315;48.738;9.126;2022-12-18T06:20:33;-8.60;99.90
666;DHT22;315;48.738;9.126;2022-12-18T06:23:01;-8.60;99.90
666;DHT22;315;48.738;9.126;2022-12-18T06:25:27;-8.60;99.90
666;DHT22;315;48.738;9.126;2022-12-18T06:27:53;-8.60;99.90
666;DHT22;315;48.738;9.126;2022-12-18T06:30:18;-8.70;99.90
666;DHT22;315;48.738;9.126;2022-12-18T06:32:44;-8.70;99.90
666;DHT22;315;48.738;9.126;2022-12-18T06:35:09;-8.70;99.90
666;DHT22;315;48.738;9.126;2022-12-18T06:37:35;-8.70;99.90
666;DHT22;315;48.738;9.126;2022-12-18T06:40:01;-8.70;99.90
666;DHT22;315;48.738;9.126;2022-12-18T06:42:26;-8.70;99.90
666;DHT22;315;48.738;9.126;2022-12-18T06:44:52;-8.70;99.90
666;DHT22;315;48.738;9.126;2022-12-18T06:47:18;-8.60;99.90
666;DHT22;315;48.738;9.126;2022-12-18T06:49:43;-8.60;99.90
666;DHT22;315;48.738;9.126;2022-12-18T06:52:09;-8.60;99.90
666;DHT22;315;48.738;9.126;2022-12-18T06:54:35;-8.60;99.90
666;DHT22;315;48.738;9.126;2022-12-18T06:57:00;-8.70;99.90
666;DHT22;315;48.738;9.126;2022-12-18T06:59:26;-8.70;99.90
666;DHT22;315;48.738;9.126;2022-12-18T07:01:51;-8.70;99.90
666;DHT22;315;48.738;9.126;2022-12-18T07:04:17;-8.70;99.90
666;DHT22;315;48.738;9.126;2022-12-18T07:06:42;-8.70;99.90
666;DHT22;315;48.738;9.126;2022-12-18T07:09:08;-8.70;99.90
666;DHT22;315;48.738;9.126;2022-12-18T07:11:33;-8.70;99.90
666;DHT22;315;48.738;9.126;2022-12-18T07:13:59;-8.70;99.90
666;DHT22;315;48.738;9.126;2022-12-18T07:16:25;-8.70;99.90
666;DHT22;315;48.738;9.126;2022-12-18T07:18:50;-8.80;99.90
666;DHT22;315;48.738;9.126;2022-12-18T07:21:18;-8.70;99.90
666;DHT22;315;48.738;9.126;2022-12-18T07:23:44;-8.70;99.90
666;DHT22;315;48.738;9.126;2022-12-18T07:26:14;-8.60;99.90
666;DHT22;315;48.738;9.126;2022-12-18T07:28:41;-8.60;99.90
666;DHT22;315;48.738;9.126;2022-12-18T07:31:13;-8.50;99.90
666;DHT22;315;48.738;9.126;2022-12-18T07:33:39;-8.40;99.90
666;DHT22;315;48.738;9.126;2022-12-18T07:36:06;-8.30;99.90
666;DHT22;315;48.738;9.126;2022-12-18T07:38:34;-8.20;99.90
666;DHT22;315;48.738;9.126;2022-12-18T07:41:01;-8.20;99.90
666;DHT22;315;48.738;9.126;2022-12-18T07:43:27;-8.20;99.90
666;DHT22;315;48.738;9.126;2022-12-18T07:45:52;-8.10;99.90
666;DHT22;315;48.738;9.126;2022-12-18T07:48:18;-8.00;99.90
666;DHT22;315;48.738;9.126;2022-12-18T07:50:43;-7.60;99.90
666;DHT22;315;48.738;9.126;2022-12-18T07:53:09;-6.90;99.90
666;DHT22;315;48.738;9.126;2022-12-18T07:55:34;-6.10;99.90
666;DHT22;315;48.738;9.126;2022-12-18T07:58:02;-5.50;99.90
666;DHT22;315;48.738;9.126;2022-12-18T08:00:28;-4.80;99.90
666;DHT22;315;48.738;9.126;2022-12-18T08:02:53;-4.30;99.90
666;DHT22;315;48.738;9.126;2022-12-18T08:05:19;-3.90;99.90
666;DHT22;315;48.738;9.126;2022-12-18T08:07:46;-3.20;99.90
666;DHT22;315;48.738;9.126;2022-12-18T08:10:12;-2.70;99.90
666;DHT22;315;48.738;9.126;2022-12-18T08:12:37;-2.20;99.90
666;DHT22;315;48.738;9.126;2022-12-18T08:15:03;-1.70;99.90
666;DHT22;315;48.738;9.126;2022-12-18T08:17:29;-1.10;99.90
666;DHT22;315;48.738;9.126;2022-12-18T08:19:55;-1.10;99.90
666;DHT22;315;48.738;9.126;2022-12-18T08:22:20;-0.10;99.90
666;DHT22;315;48.738;9.126;2022-12-18T08:24:46;0.70;99.60
666;DHT22;315;48.738;9.126;2022-12-18T08:27:12;1.30;96.70
666;DHT22;315;48.738;9.126;2022-12-18T08:29:37;2.00;96.20
666;DHT22;315;48.738;9.126;2022-12-18T08:32:03;2.30;96.20
666;DHT22;315;48.738;9.126;2022-12-18T08:34:29;3.40;94.20
666;DHT22;315;48.738;9.126;2022-12-18T08:36:54;4.20;92.10
666;DHT22;315;48.738;9.126;2022-12-18T08:39:20;5.00;88.90
666;DHT22;315;48.738;9.126;2022-12-18T08:41:45;5.20;85.10
666;DHT22;315;48.738;9.126;2022-12-18T08:44:31;5.10;86.70
666;DHT22;315;48.738;9.126;2022-12-18T08:47:07;5.20;83.20
666;DHT22;315;48.738;9.126;2022-12-18T08:49:34;5.30;81.00
666;DHT22;315;48.738;9.126;2022-12-18T08:52:00;5.90;80.70
666;DHT22;315;48.738;9.126;2022-12-18T08:54:25;6.70;77.10
666;DHT22;315;48.738;9.126;2022-12-18T08:56:51;6.80;73.00
666;DHT22;315;48.738;9.126;2022-12-18T08:59:18;6.70;73.10
666;DHT22;315;48.738;9.126;2022-12-18T09:01:44;7.40;73.20
666;DHT22;315;48.738;9.126;2022-12-18T09:04:10;7.10;72.00
666;DHT22;315;48.738;9.126;2022-12-18T09:06:36;6.70;73.50
666;DHT22;315;48.738;9.126;2022-12-18T09:09:03;5.70;77.10
666;DHT22;315;48.738;9.126;2022-12-18T09:11:29;3.80;81.70
666;DHT22;315;48.738;9.126;2022-12-18T09:13:55;2.50;91.40
666;DHT22;315;48.738;9.126;2022-12-18T09:16:23;2.40;94.10
666;DHT22;315;48.738;9.126;2022-12-18T09:18:48;2.30;95.90
666;DHT22;315;48.738;9.126;2022-12-18T09:21:16;2.80;95.40
666;DHT22;315;48.738;9.126;2022-12-18T09:23:43;2.90;95.10
666;DHT22;315;48.738;9.126;2022-12-18T09:26:09;4.50;93.30
666;DHT22;315;48.738;9.126;2022-12-18T09:28:34;5.70;88.40
666;DHT22;315;48.738;9.126;2022-12-18T09:31:05;6.00;83.80
666;DHT22;315;48.738;9.126;2022-12-18T09:33:31;7.20;82.00
666;DHT22;315;48.738;9.126;2022-12-18T09:35:57;8.00;76.80
666;DHT22;315;48.738;9.126;2022-12-18T09:38:22;6.60;78.20
666;DHT22;315;48.738;9.126;2022-12-18T09:40:51;5.60;85.20
666;DHT22;315;48.738;9.126;2022-12-18T09:43:22;5.70;84.60
666;DHT22;315;48.738;9.126;2022-12-18T09:45:55;5.70;88.30
666;DHT22;315;48.738;9.126;2022-12-18T09:48:27;5.90;84.50
666;DHT22;315;48.738;9.126;2022-12-18T09:51:00;7.80;82.80
666;DHT22;315;48.738;9.126;2022-12-18T09:53:31;9.00;73.10
666;DHT22;315;48.738;9.126;2022-12-18T09:55:58;9.60;71.00
666;DHT22;315;48.738;9.126;2022-12-18T09:58:41;10.80;67.00
666;DHT22;315;48.738;9.126;2022-12-18T10:01:20;10.80;61.70
666;DHT22;315;48.738;9.126;2022-12-18T10:03:47;9.80;61.10
666;DHT22;315;48.738;9.126;2022-12-18T10:06:25;9.10;66.20
666;DHT22;315;48.738;9.126;2022-12-18T10:08:54;9.10;66.90
666;DHT22;315;48.738;9.126;2022-12-18T10:14:27;10.50;63.30
666;DHT22;315;48.738;9.126;2022-12-18T10:19:56;12.50;58.10
666;DHT22;315;48.738;9.126;2022-12-18T10:24:59;13.70;54.30
666;DHT22;315;48.738;9.126;2022-12-18T10:27:27;12.30;53.90
666;DHT22;315;48.738;9.126;2022-12-18T10:29:54;12.90;55.10
666;DHT22;315;48.738;9.126;2022-12-18T10:32:22;12.00;54.80
666;DHT22;315;48.738;9.126;2022-12-18T10:34:50;11.40;56.80
666;DHT22;315;48.738;9.126;2022-12-18T10:37:18;12.00;56.00
666;DHT22;315;48.738;9.126;2022-12-18T10:39:45;10.80;55.70
666;DHT22;315;48.738;9.126;2022-12-18T10:42:17;8.90;59.10
666;DHT22;315;48.738;9.126;2022-12-18T10:44:42;9.30;60.90
666;DHT22;315;48.738;9.126;2022-12-18T10:47:14;9.30;59.70
666;DHT22;315;48.738;9.126;2022-12-18T10:49:48;8.20;61.50
666;DHT22;315;48.738;9.126;2022-12-18T10:52:18;7.10;66.40
666;DHT22;315;48.738;9.126;2022-12-18T10:54:59;6.40;70.80
666;DHT22;315;48.738;9.126;2022-12-18T10:57:35;6.40;73.10
666;DHT22;315;48.738;9.126;2022-12-18T11:00:27;7.10;74.50
666;DHT22;315;48.738;9.126;2022-12-18T11:02:54;7.90;70.10
666;DHT22;315;48.738;9.126;2022-12-18T11:07:50;7.20;72.10
666;DHT22;315;48.738;9.126;2022-12-18T11:10:20;7.70;70.30
666;DHT22;315;48.738;9.126;2022-12-18T11:12:47;7.90;70.90
666;DHT22;315;48.738;9.126;2022-12-18T11:15:31;9.80;65.80
666;DHT22;315;48.738;9.126;2022-12-18T11:17:56;10.60;64.20
666;DHT22;315;48.738;9.126;2022-12-18T11:20:35;12.80;58.70
666;DHT22;315;48.738;9.126;2022-12-18T11:23:04;13.30;55.70
666;DHT22;315;48.738;9.126;2022-12-18T11:25:32;12.70;54.90
666;DHT22;315;48.738;9.126;2022-12-18T11:28:03;11.70;56.10
666;DHT22;315;48.738;9.126;2022-12-18T11:30:35;10.60;58.00
666;DHT22;315;48.738;9.126;2022-12-18T11:33:15;9.80;61.10
666;DHT22;315;48.738;9.126;2022-12-18T11:35:55;10.30;58.70
666;DHT22;315;48.738;9.126;2022-12-18T11:38:27;11.00;59.30
666;DHT22;315;48.738;9.126;2022-12-18T11:41:02;11.00;58.20
666;DHT22;315;48.738;9.126;2022-12-18T11:46:24;11.60;56.60
666;DHT22;315;48.738;9.126;2022-12-18T11:49:11;12.00;56.20
666;DHT22;315;48.738;9.126;2022-12-18T11:51:58;10.60;56.60
666;DHT22;315;48.738;9.126;2022-12-18T11:54:25;11.40;57.10
666;DHT22;315;48.738;9.126;2022-12-18T12:02:26;10.60;56.70
666;DHT22;315;48.738;9.126;2022-12-18T12:07:56;9.40;60.20
666;DHT22;315;48.738;9.126;2022-12-18T12:16:03;7.90;65.20
666;DHT22;315;48.738;9.126;2022-12-18T12:21:21;6.30;73.80
666;DHT22;315;48.738;9.126;2022-12-18T12:27:06;5.60;80.90
666;DHT22;315;48.738;9.126;2022-12-18T12:29:41;6.70;78.90
666;DHT22;315;48.738;9.126;2022-12-18T12:38:06;4.70;88.90
666;DHT22;315;48.738;9.126;2022-12-18T12:40:37;4.10;91.70
666;DHT22;315;48.738;9.126;2022-12-18T12:46:02;4.10;94.90
666;DHT22;315;48.738;9.126;2022-12-18T12:48:42;4.10;94.70
666;DHT22;315;48.738;9.126;2022-12-18T12:53:39;4.70;93.70
666;DHT22;315;48.738;9.126;2022-12-18T12:56:09;5.20;93.20
666;DHT22;315;48.738;9.126;2022-12-18T12:58:44;5.40;92.30
666;DHT22;315;48.738;9.126;2022-12-18T13:01:16;5.10;92.70
666;DHT22;315;48.738;9.126;2022-12-18T13:04:02;5.20;94.40
666;DHT22;315;48.738;9.126;2022-12-18T13:06:47;5.20;93.00
666;DHT22;315;48.738;9.126;2022-12-18T13:09:13;4.90;95.10
666;DHT22;315;48.738;9.126;2022-12-18T13:11:40;5.10;95.40
666;DHT22;315;48.738;9.126;2022-12-18T13:14:38;5.30;94.20
666;DHT22;315;48.738;9.126;2022-12-18T13:19:51;5.70;91.30
666;DHT22;315;48.738;9.126;2022-12-18T13:22:28;5.20;92.10
666;DHT22;315;48.738;9.126;2022-12-18T13:24:54;4.50;94.70
666;DHT22;315;48.738;9.126;2022-12-18T13:38:34;3.00;99.90
666;DHT22;315;48.738;9.126;2022-12-18T13:43:47;3.00;99.90
666;DHT22;315;48.738;9.126;2022-12-18T13:46:42;2.90;99.90
666;DHT22;315;48.738;9.126;2022-12-18T13:51:47;2.30;99.90
666;DHT22;315;48.738;9.126;2022-12-18T13:56:50;1.30;99.90
666;DHT22;315;48.738;9.126;2022-12-18T13:59:18;0.90;99.90
666;DHT22;315;48.738;9.126;2022-12-18T14:01:55;0.90;99.90
666;DHT22;315;48.738;9.126;2022-12-18T14:04:30;0.80;99.90
666;DHT22;315;48.738;9.126;2022-12-18T14:09:31;0.30;99.90
666;DHT22;315;48.738;9.126;2022-12-18T14:11:57;0.20;99.90
666;DHT22;315;48.738;9.126;2022-12-18T14:14:47;-0.10;99.90
666;DHT22;315;48.738;9.126;2022-12-18T14:17:14;-0.20;99.90
666;DHT22;315;48.738;9.126;2022-12-18T14:19:43;-0.20;99.90
666;DHT22;315;48.738;9.126;2022-12-18T14:22:16;-0.30;99.90
666;DHT22;315;48.738;9.126;2022-12-18T14:24:42;-0.20;99.90
666;DHT22;315;48.738;9.126;2022-12-18T14:27:24;-0.30;99.90
666;DHT22;315;48.738;9.126;2022-12-18T14:29:50;-0.30;99.90
666;DHT22;315;48.738;9.126;2022-12-18T14:32:20;-0.30;99.90
666;DHT22;315;48.738;9.126;2022-12-18T14:34:50;-0.50;99.90
666;DHT22;315;48.738;9.126;2022-12-18T14:37:20;-0.40;99.90
666;DHT22;315;48.738;9.126;2022-12-18T14:40:12;-0.40;99.90
666;DHT22;315;48.738;9.126;2022-12-18T14:42:38;-0.50;99.90
666;DHT22;315;48.738;9.126;2022-12-18T14:45:32;-0.50;99.90
666;DHT22;315;48.738;9.126;2022-12-18T14:47:58;-0.50;99.90
666;DHT22;315;48.738;9.126;2022-12-18T14:50:24;-0.70;99.90
666;DHT22;315;48.738;9.126;2022-12-18T14:52:50;-0.70;99.90
666;DHT22;315;48.738;9.126;2022-12-18T14:55:20;-0.70;99.90
666;DHT22;315;48.738;9.126;2022-12-18T14:57:50;-0.60;99.90
666;DHT22;315;48.738;9.126;2022-12-18T15:00:19;-0.60;99.90
666;DHT22;315;48.738;9.126;2022-12-18T15:02:48;-0.60;99.90
666;DHT22;315;48.738;9.126;2022-12-18T15:05:25;-0.70;99.90
666;DHT22;315;48.738;9.126;2022-12-18T15:07:52;-0.70;99.90
666;DHT22;315;48.738;9.126;2022-12-18T15:23:11;-1.10;99.90
666;DHT22;315;48.738;9.126;2022-12-18T15:25:37;-1.20;99.90
666;DHT22;315;48.738;9.126;2022-12-18T15:28:14;-1.20;99.90
666;DHT22;315;48.738;9.126;2022-12-18T15:31:21;-1.30;99.90
666;DHT22;315;48.738;9.126;2022-12-18T15:36:20;-1.60;99.90
666;DHT22;315;48.738;9.126;2022-12-18T15:38:48;-1.60;99.90
666;DHT22;315;48.738;9.126;2022-12-18T15:41:19;-1.80;99.90
666;DHT22;315;48.738;9.126;2022-12-18T15:43:47;-1.90;99.90
666;DHT22;315;48.738;9.126;2022-12-18T15:46:15;-2.00;99.90
666;DHT22;315;48.738;9.126;2022-12-18T15:48:44;-2.20;99.90
666;DHT22;315;48.738;9.126;2022-12-18T15:53:50;-2.30;99.90
666;DHT22;315;48.738;9.126;2022-12-18T15:56:17;-2.40;99.90
666;DHT22;315;48.738;9.126;2022-12-18T15:59:02;-2.40;99.90
666;DHT22;315;48.738;9.126;2022-12-18T16:01:29;-2.30;99.90
666;DHT22;315;48.738;9.126;2022-12-18T16:03:56;-2.30;99.90
666;DHT22;315;48.738;9.126;2022-12-18T16:06:22;-2.30;99.90
666;DHT22;315;48.738;9.126;2022-12-18T16:08:48;-2.30;99.90
666;DHT22;315;48.738;9.126;2022-12-18T16:11:24;-2.30;99.90
666;DHT22;315;48.738;9.126;2022-12-18T16:14:26;-2.40;99.90
666;DHT22;315;48.738;9.126;2022-12-18T16:16:54;-2.50;99.90
666;DHT22;315;48.738;9.126;2022-12-18T16:19:20;-2.50;99.90
666;DHT22;315;48.738;9.126;2022-12-18T16:21:47;-2.40;99.90
666;DHT22;315;48.738;9.126;2022-12-18T16:24:24;-2.30;99.90
666;DHT22;315;48.738;9.126;2022-12-18T16:26:51;-2.30;99.90
666;DHT22;315;48.738;9.126;2022-12-18T16:29:18;-2.30;99.90
666;DHT22;315;48.738;9.126;2022-12-18T16:31:43;-2.30;99.90
666;DHT22;315;48.738;9.126;2022-12-18T16:34:18;-2.30;99.90
666;DHT22;315;48.738;9.126;2022-12-18T16:36:46;-2.30;99.90
666;DHT22;315;48.738;9.126;2022-12-18T16:39:15;-2.30;99.90
666;DHT22;315;48.738;9.126;2022-12-18T16:41:40;-2.30;99.90
666;DHT22;315;48.738;9.126;2022-12-18T16:44:06;-2.30;99.90
666;DHT22;315;48.738;9.126;2022-12-18T16:46:32;-2.30;99.90
666;DHT22;315;48.738;9.126;2022-12-18T16:48:58;-2.30;99.90
666;DHT22;315;48.738;9.126;2022-12-18T16:51:25;-2.30;99.90
666;DHT22;315;48.738;9.126;2022-12-18T16:53:51;-2.30;99.90
666;DHT22;315;48.738;9.126;2022-12-18T16:56:17;-2.30;99.90
666;DHT22;315;48.738;9.126;2022-12-18T16:58:43;-2.20;99.90
666;DHT22;315;48.738;9.126;2022-12-18T17:01:10;-2.20;99.90
666;DHT22;315;48.738;9.126;2022-12-18T17:03:35;-2.20;99.90
666;DHT22;315;48.738;9.126;2022-12-18T17:06:02;-2.30;99.90
666;DHT22;315;48.738;9.126;2022-12-18T17:08:28;-2.30;99.90
666;DHT22;315;48.738;9.126;2022-12-18T17:10:53;-2.20;99.90
666;DHT22;315;48.738;9.126;2022-12-18T17:13:19;-2.20;99.90
666;DHT22;315;48.738;9.126;2022-12-18T17:15:45;-2.30;99.90
666;DHT22;315;48.738;9.126;2022-12-18T17:18:11;-2.30;99.90
666;DHT22;315;48.738;9.126;2022-12-18T17:20:36;-2.30;99.90
666;DHT22;315;48.738;9.126;2022-12-18T17:23:02;-2.40;99.90
666;DHT22;315;48.738;9.126;2022-12-18T17:25:27;-2.40;99.90
666;DHT22;315;48.738;9.126;2022-12-18T17:27:53;-2.40;99.90
666;DHT22;315;48.738;9.126;2022-12-18T17:30:19;-2.30;99.90
666;DHT22;315;48.738;9.126;2022-12-18T17:32:44;-2.30;99.90
666;DHT22;315;48.738;9.126;2022-12-18T17:35:10;-2.30;99.90
666;DHT22;315;48.738;9.126;2022-12-18T17:37:35;-2.20;99.90
666;DHT22;315;48.738;9.126;2022-12-18T17:40:01;-2.20;99.90
666;DHT22;315;48.738;9.126;2022-12-18T17:42:26;-2.10;99.90
666;DHT22;315;48.738;9.126;2022-12-18T17:44:52;-2.10;99.90
666;DHT22;315;48.738;9.126;2022-12-18T17:47:17;-2.10;99.90
666;DHT22;315;48.738;9.126;2022-12-18T17:49:43;-2.10;99.90
666;DHT22;315;48.738;9.126;2022-12-18T17:52:08;-2.10;99.90
666;DHT22;315;48.738;9.126;2022-12-18T17:54:34;-2.10;99.90
666;DHT22;315;48.738;9.126;2022-12-18T17:57:04;-2.10;99.90
666;DHT22;315;48.738;9.126;2022-12-18T17:59:29;-2.20;99.90
666;DHT22;315;48.738;9.126;2022-12-18T18:01:55;-2.30;99.90
666;DHT22;315;48.738;9.126;2022-12-18T18:04:20;-2.30;99.90
666;DHT22;315;48.738;9.126;2022-12-18T18:06:46;-2.30;99.90
666;DHT22;315;48.738;9.126;2022-12-18T18:09:12;-2.40;99.90
666;DHT22;315;48.738;9.126;2022-12-18T18:11:38;-2.40;99.90
666;DHT22;315;48.738;9.126;2022-12-18T18:14:22;-2.50;99.90
666;DHT22;315;48.738;9.126;2022-12-18T18:16:49;-2.50;99.90
666;DHT22;315;48.738;9.126;2022-12-18T18:19:18;-2.40;99.90
666;DHT22;315;48.738;9.126;2022-12-18T18:21:45;-2.40;99.90
666;DHT22;315;48.738;9.126;2022-12-18T18:24:13;-2.30;99.90
666;DHT22;315;48.738;9.126;2022-12-18T18:26:40;-2.30;99.90
666;DHT22;315;48.738;9.126;2022-12-18T18:29:22;-2.20;99.90
666;DHT22;315;48.738;9.126;2022-12-18T18:31:48;-2.20;99.90
666;DHT22;315;48.738;9.126;2022-12-18T18:34:19;-2.20;99.90
666;DHT22;315;48.738;9.126;2022-12-18T18:36:45;-2.20;99.90
666;DHT22;315;48.738;9.126;2022-12-18T18:39:11;-2.20;99.90
666;DHT22;315;48.738;9.126;2022-12-18T18:41:37;-2.20;99.90
666;DHT22;315;48.738;9.126;2022-12-18T18:44:03;-2.20;99.90